createdAt,value
2022-07-29T00:00:40.946Z,1.85
2022-07-29T00:03:27.871Z,1.95
2022-07-29T00:06:16.059Z,1.70
2022-07-29T00:09:02.937Z,1.73
2022-07-29T00:11:50.200Z,1.40
2022-07-29T00:14:36.814Z,1.40
2022-07-29T00:17:23.349Z,1.60
2022-07-29T00:20:11.456Z,1.50
2022-07-29T00:22:59.777Z,1.63
2022-07-29T00:25:46.570Z,1.52
2022-07-29T00:28:33.429Z,1.40
2022-07-29T00:31:20.214Z,1.30
2022-07-29T00:34:07.264Z,1.55
2022-07-29T00:36:52.838Z,1.15
2022-07-29T00:39:40.661Z,1.20
2022-07-29T00:42:27.451Z,1.30
2022-07-29T00:45:15.384Z,1.42
2022-07-29T00:48:02.009Z,1.65
2022-07-29T00:50:48.800Z,1.52
2022-07-29T00:53:36.020Z,1.40
2022-07-29T00:56:24.000Z,1.33
2022-07-29T00:59:10.713Z,1.50
2022-07-29T01:01:57.703Z,1.40
2022-07-29T01:04:44.148Z,1.40
2022-07-29T01:07:31.859Z,1.50
2022-07-29T01:10:20.297Z,1.70
2022-07-29T01:13:08.846Z,1.20
2022-07-29T01:16:01.126Z,1.42
2022-07-29T01:18:51.590Z,1.33
2022-07-29T01:21:53.526Z,1.58
2022-07-29T01:25:02.849Z,1.27
2022-07-29T01:28:19.628Z,1.20
2022-07-29T01:31:25.034Z,1.30
2022-07-29T01:34:20.161Z,1.25
2022-07-29T01:37:15.890Z,1.65
2022-07-29T01:40:05.538Z,1.50
2022-07-29T01:42:56.476Z,1.85
2022-07-29T01:45:46.964Z,1.35
2022-07-29T01:48:42.140Z,1.40
2022-07-29T01:51:34.552Z,1.17
2022-07-29T01:54:26.920Z,1.50
2022-07-29T01:57:20.691Z,1.17
2022-07-29T02:00:08.786Z,1.27
2022-07-29T02:03:05.849Z,1.63
2022-07-29T02:05:59.927Z,1.33
2022-07-29T02:08:49.021Z,1.80
2022-07-29T02:11:37.381Z,1.65
2022-07-29T02:14:26.382Z,1.40
2022-07-29T02:17:14.273Z,1.15
2022-07-29T02:20:05.138Z,1.40
2022-07-29T02:22:55.815Z,1.23
2022-07-29T02:25:44.812Z,1.00
2022-07-29T02:28:34.818Z,1.38
2022-07-29T02:31:24.898Z,1.13
2022-07-29T02:34:13.886Z,1.35
2022-07-29T02:37:06.297Z,1.42
2022-07-29T02:39:56.516Z,1.20
2022-07-29T02:42:45.881Z,1.27
2022-07-29T02:45:33.469Z,1.20
2022-07-29T02:48:23.389Z,1.20
2022-07-29T02:51:15.161Z,1.27
2022-07-29T02:54:28.032Z,1.20
2022-07-29T02:57:23.072Z,1.20
2022-07-29T03:00:12.676Z,1.80
2022-07-29T03:03:02.580Z,1.20
2022-07-29T03:05:49.271Z,1.35
2022-07-29T03:08:37.509Z,1.20
2022-07-29T03:11:42.212Z,1.20
2022-07-29T03:14:33.245Z,1.15
2022-07-29T03:17:21.189Z,1.38
2022-07-29T03:20:12.160Z,1.10
2022-07-29T03:22:58.881Z,1.30
2022-07-29T03:25:48.593Z,1.23
2022-07-29T03:28:35.128Z,1.15
2022-07-29T03:31:24.896Z,1.52
2022-07-29T03:34:11.576Z,1.27
2022-07-29T03:36:58.535Z,1.15
2022-07-29T03:39:47.741Z,1.38
2022-07-29T03:42:38.490Z,1.25
2022-07-29T03:45:25.753Z,1.50
2022-07-29T03:48:18.083Z,1.48
2022-07-29T03:51:05.412Z,1.35
2022-07-29T03:53:54.394Z,1.40
2022-07-29T03:56:47.197Z,1.50
2022-07-29T03:59:35.684Z,1.30
2022-07-29T04:02:27.349Z,1.58
2022-07-29T04:05:20.800Z,1.30
2022-07-29T04:08:07.584Z,1.35
2022-07-29T04:10:54.391Z,1.40
2022-07-29T04:13:40.806Z,1.38
2022-07-29T04:16:28.210Z,1.50
2022-07-29T04:19:15.012Z,1.33
2022-07-29T04:22:03.168Z,1.50
2022-07-29T04:24:49.995Z,1.05
2022-07-29T04:27:36.894Z,1.40
2022-07-29T04:30:23.310Z,1.40
2022-07-29T04:33:10.429Z,1.48
2022-07-29T04:35:57.002Z,1.55
2022-07-29T04:38:45.105Z,1.50
2022-07-29T04:41:33.353Z,1.40
2022-07-29T04:44:20.281Z,1.80
2022-07-29T04:47:10.047Z,1.60
2022-07-29T04:49:57.148Z,1.70
2022-07-29T04:52:43.894Z,1.73
2022-07-29T04:55:31.951Z,1.52
2022-07-29T04:58:18.827Z,1.30
2022-07-29T05:01:05.474Z,1.27
2022-07-29T05:03:54.860Z,1.30
2022-07-29T05:06:43.711Z,1.75
2022-07-29T05:09:30.626Z,1.60
2022-07-29T05:12:19.287Z,1.50
2022-07-29T05:15:07.176Z,1.63
2022-07-29T05:17:55.762Z,1.80
2022-07-29T05:20:42.507Z,1.45
2022-07-29T05:23:28.952Z,1.25
2022-07-29T05:26:15.456Z,1.30
2022-07-29T05:29:03.766Z,1.48
2022-07-29T05:31:51.956Z,1.52
2022-07-29T05:34:38.472Z,1.60
2022-07-29T05:37:38.052Z,1.30
2022-07-29T05:40:24.842Z,1.10
2022-07-29T05:43:11.676Z,1.30
2022-07-29T05:45:59.956Z,1.20
2022-07-29T05:48:46.569Z,1.33
2022-07-29T05:51:33.241Z,1.75
2022-07-29T05:54:19.970Z,1.35
2022-07-29T05:57:07.285Z,1.35
2022-07-29T05:59:54.230Z,1.27
2022-07-29T06:02:42.363Z,1.38
2022-07-29T06:05:29.397Z,1.25
2022-07-29T06:08:16.205Z,1.13
2022-07-29T06:11:03.248Z,1.10
2022-07-29T06:13:49.861Z,1.83
2022-07-29T06:16:36.537Z,1.48
2022-07-29T06:19:24.709Z,1.60
2022-07-29T06:22:11.502Z,1.50
2022-07-29T06:24:58.067Z,1.60
2022-07-29T06:27:44.661Z,1.60
2022-07-29T06:30:31.734Z,1.42
2022-07-29T06:33:21.603Z,1.10
2022-07-29T06:36:10.318Z,1.80
2022-07-29T06:38:58.740Z,1.38
2022-07-29T06:41:49.900Z,1.20
2022-07-29T06:44:36.591Z,1.63
2022-07-29T06:47:23.080Z,1.48
2022-07-29T06:50:12.706Z,1.35
2022-07-29T06:53:00.713Z,1.48
2022-07-29T06:55:47.741Z,1.40
2022-07-29T06:58:34.511Z,1.83
2022-07-29T07:01:21.843Z,1.13
2022-07-29T07:04:10.156Z,1.65
2022-07-29T07:06:57.519Z,1.50
2022-07-29T07:09:45.439Z,1.60
2022-07-29T07:12:31.996Z,1.40
2022-07-29T07:15:22.661Z,1.70
2022-07-29T07:18:25.297Z,1.48
2022-07-29T07:21:12.102Z,1.83
2022-07-29T07:24:05.956Z,1.52
2022-07-29T07:26:54.484Z,1.38
2022-07-29T07:29:42.083Z,1.77
2022-07-29T07:32:31.358Z,1.63
2022-07-29T07:35:17.998Z,1.55
2022-07-29T07:38:04.660Z,1.40
2022-07-29T07:40:52.859Z,1.60
2022-07-29T07:43:41.134Z,1.50
2022-07-29T07:46:28.192Z,1.77
2022-07-29T07:49:15.065Z,1.60
2022-07-29T07:52:01.875Z,2.00
2022-07-29T07:54:48.502Z,1.60
2022-07-29T07:57:35.516Z,1.90
2022-07-29T08:00:24.243Z,1.65
2022-07-29T08:03:16.987Z,2.05
2022-07-29T08:06:04.301Z,1.67
2022-07-29T08:08:51.995Z,1.55
2022-07-29T08:11:38.945Z,1.60
2022-07-29T08:14:39.165Z,1.48
2022-07-29T08:17:27.555Z,1.50
2022-07-29T08:20:14.342Z,1.45
2022-07-29T08:23:01.421Z,1.75
2022-07-29T08:25:50.055Z,1.40
2022-07-29T08:28:37.029Z,1.88
2022-07-29T08:31:23.543Z,1.50
2022-07-29T08:34:11.625Z,1.60
2022-07-29T08:36:58.365Z,1.23
2022-07-29T08:39:45.077Z,1.40
2022-07-29T08:42:33.947Z,1.60
2022-07-29T08:45:25.236Z,1.65
2022-07-29T08:48:11.816Z,1.35
2022-07-29T08:51:00.355Z,1.50
2022-07-29T08:53:50.477Z,1.20
2022-07-29T08:56:38.163Z,1.40
2022-07-29T08:59:28.716Z,1.70
2022-07-29T09:02:22.769Z,1.30
2022-07-29T09:05:10.391Z,1.50
2022-07-29T09:07:58.598Z,1.50
2022-07-29T09:10:45.946Z,1.30
2022-07-29T09:13:32.904Z,1.23
2022-07-29T09:16:43.693Z,1.42
2022-07-29T09:19:29.210Z,1.77
2022-07-29T09:22:31.105Z,1.40
2022-07-29T09:25:35.684Z,1.30
2022-07-29T09:28:24.660Z,1.52
2022-07-29T09:31:11.212Z,1.27
2022-07-29T09:34:01.149Z,1.40
2022-07-29T09:36:50.566Z,1.45
2022-07-29T09:39:45.051Z,1.55
2022-07-29T09:42:37.164Z,1.50
2022-07-29T09:45:32.933Z,1.40
2022-07-29T09:48:21.061Z,1.52
2022-07-29T09:51:20.697Z,1.67
2022-07-29T09:54:24.111Z,1.55
2022-07-29T09:57:25.227Z,1.60
2022-07-29T10:00:20.899Z,1.30
2022-07-29T10:03:07.689Z,1.45
2022-07-29T10:06:08.513Z,1.45
2022-07-29T10:08:55.696Z,1.50
2022-07-29T10:11:56.780Z,1.60
2022-07-29T10:14:44.482Z,1.42
2022-07-29T10:17:32.391Z,1.58
2022-07-29T10:20:19.363Z,1.70
2022-07-29T10:23:06.922Z,1.60
2022-07-29T10:25:53.782Z,1.67
2022-07-29T10:28:40.587Z,1.60
2022-07-29T10:31:35.939Z,1.45
2022-07-29T10:34:36.071Z,1.60
2022-07-29T10:37:35.929Z,1.80
2022-07-29T10:41:06.893Z,1.55
2022-07-29T10:44:00.145Z,1.65
2022-07-29T10:46:47.908Z,1.70
2022-07-29T10:49:36.362Z,1.55
2022-07-29T10:52:26.559Z,1.60
2022-07-29T10:55:43.250Z,1.70
2022-07-29T10:59:23.973Z,1.52
2022-07-29T11:02:44.861Z,1.60
2022-07-29T11:05:56.565Z,1.58
2022-07-29T11:08:46.937Z,1.60
2022-07-29T11:11:34.900Z,1.45
2022-07-29T11:14:57.160Z,1.52
2022-07-29T11:18:06.168Z,1.70
2022-07-29T11:20:56.073Z,1.63
2022-07-29T11:23:44.520Z,1.70
2022-07-29T11:26:32.381Z,1.70
2022-07-29T11:29:23.163Z,1.80
2022-07-29T11:32:18.099Z,1.60
2022-07-29T11:35:17.747Z,1.85
2022-07-29T11:38:29.322Z,1.88
2022-07-29T11:41:23.674Z,1.45
2022-07-29T11:44:10.558Z,1.60
2022-07-29T11:46:57.544Z,1.75
2022-07-29T11:49:48.241Z,1.70
2022-07-29T11:52:38.118Z,1.50
2022-07-29T11:55:51.095Z,1.70
2022-07-29T11:58:39.817Z,1.75
2022-07-29T12:01:28.103Z,1.67
2022-07-29T12:04:14.832Z,1.90
2022-07-29T12:07:04.699Z,1.80
2022-07-29T12:09:52.940Z,1.90
2022-07-29T12:12:53.556Z,1.55
2022-07-29T12:15:46.964Z,1.88
2022-07-29T12:18:34.215Z,1.88
2022-07-29T12:21:20.966Z,2.53
2022-07-29T12:24:12.509Z,2.00
2022-07-29T12:27:02.385Z,2.05
2022-07-29T12:29:58.753Z,2.17
2022-07-29T12:32:47.285Z,1.73
2022-07-29T12:35:36.382Z,1.90
2022-07-29T12:38:23.601Z,2.92
2022-07-29T12:41:10.444Z,2.17
2022-07-29T12:43:57.856Z,9.68
2022-07-29T12:46:49.826Z,2.35
2022-07-29T12:49:37.995Z,1.95
2022-07-29T12:52:30.145Z,3.15
2022-07-29T12:55:17.038Z,6.30
2022-07-29T12:58:04.022Z,3.53
2022-07-29T13:01:04.672Z,3.10
2022-07-29T13:03:58.059Z,2.10
2022-07-29T13:06:50.977Z,2.20
2022-07-29T13:09:44.465Z,2.08
2022-07-29T13:12:31.148Z,2.10
2022-07-29T13:15:18.560Z,2.13
2022-07-29T13:18:06.628Z,2.10
2022-07-29T13:20:54.863Z,2.05
2022-07-29T13:23:41.930Z,2.22
2022-07-29T13:26:30.609Z,1.75
2022-07-29T13:29:17.629Z,1.80
2022-07-29T13:32:04.876Z,2.30
2022-07-29T13:34:51.743Z,1.80
2022-07-29T13:37:40.121Z,1.77
2022-07-29T13:40:27.351Z,2.20
2022-07-29T13:43:13.998Z,1.70
2022-07-29T13:46:01.105Z,1.90
2022-07-29T13:48:47.965Z,2.00
2022-07-29T13:51:34.570Z,1.85
2022-07-29T13:54:22.785Z,2.03
2022-07-29T13:57:09.840Z,2.00
2022-07-29T13:59:56.548Z,2.28
2022-07-29T14:02:43.441Z,2.10
2022-07-29T14:05:29.885Z,1.83
2022-07-29T14:08:17.030Z,2.00
2022-07-29T14:11:05.285Z,2.05
2022-07-29T14:13:52.342Z,1.92
2022-07-29T14:16:43.054Z,1.98
2022-07-29T14:19:36.470Z,1.80
2022-07-29T14:22:25.485Z,1.77
2022-07-29T14:25:14.915Z,2.33
2022-07-29T14:28:03.584Z,2.10
2022-07-29T14:30:50.391Z,1.80
2022-07-29T14:33:37.177Z,2.00
2022-07-29T14:36:24.569Z,1.80
2022-07-29T14:39:11.113Z,2.25
2022-07-29T14:41:58.295Z,2.13
2022-07-29T14:44:48.743Z,1.83
2022-07-29T14:47:36.068Z,2.05
2022-07-29T14:50:23.367Z,1.83
2022-07-29T14:53:18.983Z,1.90
2022-07-29T14:56:33.908Z,1.95
2022-07-29T14:59:13.004Z,1.67
2022-07-29T15:02:01.910Z,2.00
2022-07-29T15:04:49.605Z,2.05
2022-07-29T15:07:39.311Z,2.00
2022-07-29T15:10:27.134Z,1.95
2022-07-29T15:13:13.767Z,2.05
2022-07-29T15:16:01.363Z,2.10
2022-07-29T15:18:49.494Z,2.10
2022-07-29T15:21:36.610Z,2.10
2022-07-29T15:24:35.462Z,1.95
2022-07-29T15:27:22.173Z,1.80
2022-07-29T15:30:10.629Z,2.50
2022-07-29T15:33:17.465Z,2.00
2022-07-29T15:36:06.523Z,2.10
2022-07-29T15:38:55.736Z,1.95
2022-07-29T15:41:42.559Z,1.80
2022-07-29T15:44:29.241Z,2.10
2022-07-29T15:47:15.752Z,2.20
2022-07-29T15:50:03.312Z,1.85
2022-07-29T15:52:51.146Z,2.00
2022-07-29T15:55:38.056Z,1.63
2022-07-29T15:58:24.873Z,2.10
2022-07-29T16:01:11.906Z,2.22
2022-07-29T16:03:59.333Z,2.08
2022-07-29T16:06:47.540Z,2.10
2022-07-29T16:09:35.791Z,2.22
2022-07-29T16:12:22.447Z,1.95
2022-07-29T16:15:10.942Z,2.47
2022-07-29T16:17:57.920Z,2.33
2022-07-29T16:20:44.933Z,2.47
2022-07-29T16:23:32.175Z,2.45
2022-07-29T16:26:20.269Z,2.30
2022-07-29T16:29:06.808Z,3.50
2022-07-29T16:31:54.013Z,4.10
2022-07-29T16:34:43.700Z,5.07
2022-07-29T16:37:33.474Z,3.45
2022-07-29T16:40:20.540Z,4.25
2022-07-29T16:43:08.540Z,4.38
2022-07-29T16:45:55.398Z,4.22
2022-07-29T16:48:42.267Z,4.85
2022-07-29T16:51:30.098Z,4.28
2022-07-29T16:54:16.981Z,3.67
2022-07-29T16:57:03.525Z,3.92
2022-07-29T16:59:52.430Z,3.75
2022-07-29T17:02:39.192Z,3.38
2022-07-29T17:05:26.511Z,3.78
2022-07-29T17:08:13.381Z,4.60
2022-07-29T17:11:00.401Z,4.75
2022-07-29T17:13:47.250Z,4.13
2022-07-29T17:16:35.755Z,4.88
2022-07-29T17:19:22.567Z,4.60
2022-07-29T17:22:15.530Z,4.57
2022-07-29T17:25:06.108Z,4.50
2022-07-29T17:27:55.309Z,4.82
2022-07-29T17:30:44.231Z,4.32
2022-07-29T17:33:32.196Z,4.43
2022-07-29T17:36:29.894Z,4.45
2022-07-29T17:39:16.837Z,4.45
2022-07-29T17:42:03.622Z,4.85
2022-07-29T17:44:51.597Z,4.70
2022-07-29T17:47:38.613Z,11.07
2022-07-29T17:50:26.916Z,9.23
2022-07-29T17:53:15.906Z,7.05
2022-07-29T17:56:03.924Z,5.90
2022-07-29T17:58:52.145Z,4.90
2022-07-29T18:01:40.073Z,4.35
2022-07-29T18:04:28.571Z,5.35
2022-07-29T18:07:16.716Z,4.35
2022-07-29T18:10:03.290Z,4.85
2022-07-29T18:12:50.180Z,4.22
2022-07-29T18:15:36.832Z,4.03
2022-07-29T18:18:23.777Z,4.20
2022-07-29T18:21:10.789Z,4.10
2022-07-29T18:24:02.009Z,3.80
2022-07-29T18:26:48.888Z,3.80
2022-07-29T18:29:35.905Z,3.75
2022-07-29T18:32:29.149Z,3.50
2022-07-29T18:35:16.288Z,4.35
2022-07-29T18:38:03.519Z,3.85
2022-07-29T18:40:51.873Z,3.80
2022-07-29T18:43:38.781Z,3.60
2022-07-29T18:46:25.880Z,5.50
2022-07-29T18:49:12.809Z,4.68
2022-07-29T18:51:59.572Z,4.15
2022-07-29T18:54:46.585Z,3.65
2022-07-29T18:57:54.478Z,3.40
2022-07-29T19:00:42.472Z,3.83
2022-07-29T19:03:29.301Z,3.78
2022-07-29T19:06:16.061Z,3.10
2022-07-29T19:09:03.001Z,3.15
2022-07-29T19:11:53.039Z,3.53
2022-07-29T19:14:44.478Z,2.85
2022-07-29T19:17:31.345Z,3.85
2022-07-29T19:20:18.225Z,3.67
2022-07-29T19:23:05.024Z,3.30
2022-07-29T19:25:54.027Z,2.65
2022-07-29T19:28:40.853Z,3.20
2022-07-29T19:31:30.028Z,2.83
2022-07-29T19:34:19.454Z,2.90
2022-07-29T19:37:06.398Z,2.72
2022-07-29T19:39:53.305Z,2.90
2022-07-29T19:42:40.434Z,3.20
2022-07-29T19:45:28.826Z,3.33
2022-07-29T19:48:17.241Z,3.30
2022-07-29T19:51:04.186Z,3.47
2022-07-29T19:53:51.216Z,3.42
2022-07-29T19:56:40.066Z,3.20
2022-07-29T19:59:29.548Z,3.47
2022-07-29T20:02:18.081Z,4.07
2022-07-29T20:05:08.031Z,3.50
2022-07-29T20:07:54.932Z,3.30
2022-07-29T20:10:41.564Z,3.38
2022-07-29T20:13:28.466Z,3.35
2022-07-29T20:16:15.270Z,3.17
2022-07-29T20:19:02.064Z,3.17
2022-07-29T20:21:51.296Z,3.00
2022-07-29T20:24:38.184Z,3.03
2022-07-29T20:27:25.076Z,2.45
2022-07-29T20:30:13.318Z,2.88
2022-07-29T20:33:00.887Z,2.28
2022-07-29T20:35:47.998Z,2.40
2022-07-29T20:38:36.069Z,2.45
2022-07-29T20:41:23.281Z,2.58
2022-07-29T20:44:10.166Z,2.80
2022-07-29T20:46:57.268Z,2.65
2022-07-29T20:49:44.024Z,2.22
2022-07-29T20:52:31.384Z,2.33
2022-07-29T20:55:22.013Z,2.28
2022-07-29T20:58:08.655Z,2.05
2022-07-29T21:00:56.332Z,2.25
2022-07-29T21:03:43.120Z,2.65
2022-07-29T21:06:29.874Z,2.60
2022-07-29T21:09:16.661Z,2.40
2022-07-29T21:12:05.454Z,2.42
2022-07-29T21:14:52.536Z,2.40
2022-07-29T21:17:46.173Z,2.45
2022-07-29T21:20:33.489Z,2.15
2022-07-29T21:23:20.218Z,2.28
2022-07-29T21:26:12.802Z,1.73
2022-07-29T21:29:00.605Z,1.98
2022-07-29T21:31:48.440Z,2.00
2022-07-29T21:34:35.053Z,2.08
2022-07-29T21:37:21.756Z,2.25
2022-07-29T21:40:09.661Z,1.77
2022-07-29T21:42:59.035Z,1.80
2022-07-29T21:45:50.177Z,1.85
2022-07-29T21:48:39.156Z,1.90
2022-07-29T21:51:29.256Z,1.95
2022-07-29T21:54:15.732Z,1.77
2022-07-29T21:57:02.927Z,2.25
2022-07-29T21:59:50.044Z,2.40
2022-07-29T22:02:38.440Z,2.10
2022-07-29T22:05:25.228Z,2.13
2022-07-29T22:08:12.917Z,2.28
2022-07-29T22:10:59.533Z,2.10
2022-07-29T22:13:46.403Z,2.05
2022-07-29T22:16:33.140Z,2.10
2022-07-29T22:19:21.208Z,1.73
2022-07-29T22:22:13.790Z,1.88
2022-07-29T22:25:00.937Z,2.33
2022-07-29T22:27:47.666Z,2.00
2022-07-29T22:30:34.448Z,2.05
2022-07-29T22:33:21.161Z,1.92
2022-07-29T22:36:10.409Z,2.40
2022-07-29T22:38:57.028Z,2.25
2022-07-29T22:41:43.682Z,2.05
2022-07-29T22:44:30.216Z,2.22
2022-07-29T22:47:17.114Z,2.22
2022-07-29T22:50:04.040Z,2.40
2022-07-29T22:52:52.216Z,2.47
2022-07-29T22:55:38.888Z,2.20
2022-07-29T22:58:25.953Z,2.33
2022-07-29T23:01:12.749Z,1.98
2022-07-29T23:03:59.708Z,2.75
2022-07-29T23:06:46.317Z,2.30
2022-07-29T23:09:34.504Z,2.28
2022-07-29T23:12:22.185Z,2.30
2022-07-29T23:15:09.177Z,2.45
2022-07-29T23:17:55.773Z,2.72
2022-07-29T23:20:43.794Z,2.50
2022-07-29T23:23:32.341Z,2.38
2022-07-29T23:26:20.889Z,2.30
2022-07-29T23:29:07.582Z,2.85
2022-07-29T23:31:54.412Z,2.58
2022-07-29T23:34:41.285Z,3.13
2022-07-29T23:37:27.981Z,2.50
2022-07-29T23:40:17.381Z,2.75
2022-07-29T23:43:08.584Z,2.35
2022-07-29T23:45:58.196Z,2.50
2022-07-29T23:48:45.227Z,2.40
2022-07-29T23:51:31.862Z,2.35
2022-07-29T23:54:18.693Z,2.38
2022-07-29T23:57:05.533Z,2.50
2022-07-29T23:59:54.189Z,2.13
